Lost Nation, Iowa
Current Conditions -  °F | °C
As of 11:35 AM on Saturday 25 Oct 2014 (Local Time) from KMXO Reporting Station
Clear Clear  
Wind Chill: 64°   Ceiling: Unl
Heat Index: 64°   Visibility: 10mi
Dew Point: 41°   Wind: 15mph
Humidity: 42%   Direction: 320°NW
Pressure: 30.06"   Gusts: NA
Location:  41.96°N, 90.82°W
Report Text: KMXO 251635Z AUTO 32013KT 10SM CLR 18/05 A3006 RMK AO2
Loading
Personal Weather Stations






























Interactive Weather Map
Tropical Storm Tracking
New forecast layout! Learn more

10-Day Weather Forecast

Advertisements
Track Severe Weather on mobile